createdAt,value
2022-08-11T00:01:14.833Z,6.60
2022-08-11T00:03:51.912Z,5.70
2022-08-11T00:06:26.785Z,6.30
2022-08-11T00:08:56.324Z,6.43
2022-08-11T00:11:33.907Z,7.38
2022-08-11T00:14:02.827Z,6.40
2022-08-11T00:16:32.091Z,6.80
2022-08-11T00:19:03.476Z,6.43
2022-08-11T00:22:03.003Z,6.13
2022-08-11T00:24:23.322Z,7.32
2022-08-11T00:26:55.736Z,5.93
2022-08-11T00:29:24.211Z,6.00
2022-08-11T00:31:55.107Z,6.45
2022-08-11T00:34:27.657Z,5.72
2022-08-11T00:37:01.334Z,6.20
2022-08-11T00:39:32.580Z,6.25
2022-08-11T00:42:11.920Z,5.97
2022-08-11T00:44:53.817Z,5.93
2022-08-11T00:47:36.479Z,6.45
2022-08-11T00:50:19.783Z,6.32
2022-08-11T00:53:09.389Z,6.57
2022-08-11T00:56:22.637Z,6.60
2022-08-11T00:59:34.923Z,7.30
2022-08-11T01:02:30.653Z,6.47
2022-08-11T01:05:36.941Z,7.00
2022-08-11T01:08:44.328Z,6.45
2022-08-11T01:11:37.756Z,6.53
2022-08-11T01:14:39.281Z,6.45
2022-08-11T01:18:09.267Z,6.40
2022-08-11T01:21:05.039Z,5.88
2022-08-11T01:24:11.063Z,6.30
2022-08-11T01:27:18.959Z,6.40
2022-08-11T01:30:44.820Z,5.95
2022-08-11T01:33:48.493Z,5.65
2022-08-11T01:36:57.081Z,5.78
2022-08-11T01:39:50.520Z,6.25
2022-08-11T01:43:00.597Z,6.95
2022-08-11T01:45:37.770Z,6.68
2022-08-11T01:48:16.016Z,6.60
2022-08-11T01:50:58.211Z,5.82
2022-08-11T01:53:40.269Z,6.00
2022-08-11T01:56:24.324Z,5.95
2022-08-11T01:59:04.094Z,6.22
2022-08-11T02:01:42.801Z,6.05
2022-08-11T02:04:23.513Z,6.25
2022-08-11T02:06:59.577Z,6.53
2022-08-11T02:09:49.862Z,6.00
2022-08-11T02:12:34.611Z,5.68
2022-08-11T02:15:16.635Z,6.05
2022-08-11T02:18:05.961Z,5.53
2022-08-11T02:21:00.349Z,6.13
2022-08-11T02:24:06.029Z,5.97
2022-08-11T02:26:41.443Z,5.60
2022-08-11T02:29:20.318Z,6.20
2022-08-11T02:32:33.822Z,6.18
2022-08-11T02:35:11.100Z,6.03
2022-08-11T02:37:51.192Z,6.45
2022-08-11T02:40:27.586Z,6.85
2022-08-11T02:43:10.702Z,6.93
2022-08-11T02:45:51.051Z,6.80
2022-08-11T02:48:51.912Z,6.53
2022-08-11T02:51:31.182Z,6.45
2022-08-11T02:54:09.922Z,6.82
2022-08-11T02:56:52.408Z,6.80
2022-08-11T02:59:50.034Z,6.93
2022-08-11T03:02:41.311Z,6.57
2022-08-11T03:05:23.517Z,7.28
2022-08-11T03:08:09.495Z,7.65
2022-08-11T03:10:45.321Z,7.00
2022-08-11T03:13:38.209Z,8.02
2022-08-11T03:16:34.882Z,8.07
2022-08-11T03:19:16.973Z,8.13
2022-08-11T03:22:02.271Z,8.35
2022-08-11T03:24:41.021Z,8.00
2022-08-11T03:27:13.037Z,8.27
2022-08-11T03:29:48.399Z,8.20
2022-08-11T03:32:27.623Z,8.35
2022-08-11T03:34:57.654Z,8.55
2022-08-11T03:37:50.620Z,7.70
2022-08-11T03:40:59.961Z,7.85
2022-08-11T03:43:58.068Z,7.40
2022-08-11T03:46:39.698Z,8.80
2022-08-11T03:49:29.071Z,7.80
2022-08-11T03:52:13.035Z,8.32
2022-08-11T03:54:53.187Z,7.88
2022-08-11T03:58:03.615Z,7.85
2022-08-11T04:00:55.614Z,7.30
2022-08-11T04:03:54.447Z,6.95
2022-08-11T04:07:01.637Z,6.78
2022-08-11T04:10:08.644Z,6.70
2022-08-11T04:12:59.571Z,7.10
2022-08-11T04:16:11.777Z,6.05
2022-08-11T04:19:20.671Z,6.50
2022-08-11T04:22:25.808Z,6.43
2022-08-11T04:25:24.840Z,6.13
2022-08-11T04:28:29.173Z,6.05
2022-08-11T04:31:10.119Z,6.35
2022-08-11T04:34:06.828Z,5.65
2022-08-11T04:37:29.062Z,5.85
2022-08-11T04:40:27.720Z,5.38
2022-08-11T04:43:22.169Z,5.15
2022-08-11T04:46:15.383Z,6.38
2022-08-11T04:49:25.831Z,6.15
2022-08-11T04:53:02.799Z,6.55
2022-08-11T04:56:11.831Z,7.13
2022-08-11T04:59:10.661Z,6.88
2022-08-11T05:01:55.637Z,6.38
2022-08-11T05:05:10.563Z,5.40
2022-08-11T05:08:12.126Z,5.10
2022-08-11T05:10:58.097Z,5.93
2022-08-11T05:13:49.067Z,5.78
2022-08-11T05:16:39.443Z,5.38
2022-08-11T05:19:25.687Z,5.57
2022-08-11T05:22:15.389Z,5.32
2022-08-11T05:25:05.970Z,5.97
2022-08-11T05:27:57.785Z,5.50
2022-08-11T05:30:47.400Z,5.75
2022-08-11T05:33:40.057Z,5.65
2022-08-11T05:36:16.760Z,5.63
2022-08-11T05:39:13.807Z,6.22
2022-08-11T05:42:01.052Z,6.15
2022-08-11T05:44:49.571Z,6.03
2022-08-11T05:47:44.175Z,5.80
2022-08-11T05:50:33.126Z,5.22
2022-08-11T05:53:21.530Z,5.28
2022-08-11T05:56:09.782Z,4.93
2022-08-11T05:58:42.694Z,5.45
2022-08-11T06:01:14.293Z,5.15
2022-08-11T06:04:03.941Z,4.72
2022-08-11T06:06:32.833Z,5.00
2022-08-11T06:09:02.315Z,4.20
2022-08-11T06:11:42.869Z,4.63
2022-08-11T06:14:15.604Z,4.57
2022-08-11T06:16:50.357Z,3.92
2022-08-11T06:19:23.477Z,3.85
2022-08-11T06:21:53.351Z,4.22
2022-08-11T06:24:23.051Z,4.75
2022-08-11T06:27:12.695Z,4.30
2022-08-11T06:29:55.078Z,4.15
2022-08-11T06:32:32.362Z,3.97
2022-08-11T06:35:20.939Z,4.22
2022-08-11T06:38:03.642Z,3.85
2022-08-11T06:40:39.773Z,4.18
2022-08-11T06:43:20.043Z,3.42
2022-08-11T06:45:59.075Z,3.80
2022-08-11T06:48:29.147Z,3.78
2022-08-11T06:51:12.792Z,3.78
2022-08-11T06:54:03.746Z,3.53
2022-08-11T06:57:12.420Z,3.53
2022-08-11T07:00:02.353Z,3.60
2022-08-11T07:02:35.475Z,3.00
2022-08-11T07:05:13.642Z,3.00
2022-08-11T07:08:39.520Z,3.63
2022-08-11T07:11:59.283Z,3.50
2022-08-11T07:14:49.058Z,3.00
2022-08-11T07:17:22.110Z,3.70
2022-08-11T07:20:12.598Z,2.78
2022-08-11T07:23:02.010Z,3.47
2022-08-11T07:25:50.369Z,3.72
2022-08-11T07:28:40.882Z,3.30
2022-08-11T07:31:14.138Z,3.22
2022-08-11T07:34:05.635Z,3.65
2022-08-11T07:36:41.329Z,3.38
2022-08-11T07:39:17.770Z,3.05
2022-08-11T07:41:49.062Z,2.97
2022-08-11T07:44:18.269Z,3.75
2022-08-11T07:47:08.011Z,2.70
2022-08-11T07:49:57.188Z,2.90
2022-08-11T07:52:30.738Z,3.00
2022-08-11T07:55:03.348Z,3.05
2022-08-11T07:58:13.572Z,2.85
2022-08-11T08:00:59.243Z,2.25
2022-08-11T08:03:54.364Z,2.53
2022-08-11T08:06:42.573Z,2.45
2022-08-11T08:09:30.125Z,2.40
2022-08-11T08:12:20.646Z,2.45
2022-08-11T08:15:07.325Z,2.35
2022-08-11T08:18:09.932Z,2.33
2022-08-11T08:20:50.080Z,2.20
2022-08-11T08:23:33.510Z,2.28
2022-08-11T08:26:05.538Z,1.92
2022-08-11T08:28:35.930Z,2.00
2022-08-11T08:31:04.694Z,2.17
2022-08-11T08:33:34.127Z,1.90
2022-08-11T08:36:15.610Z,1.95
2022-08-11T08:38:49.654Z,2.78
2022-08-11T08:41:23.739Z,2.22
2022-08-11T08:43:59.882Z,2.03
2022-08-11T08:46:47.267Z,1.88
2022-08-11T08:49:19.382Z,1.85
2022-08-11T08:51:58.584Z,1.95
2022-08-11T08:54:46.087Z,1.90
2022-08-11T08:57:16.015Z,1.70
2022-08-11T08:59:51.335Z,1.65
2022-08-11T09:02:34.348Z,1.80
2022-08-11T09:05:05.087Z,1.88
2022-08-11T09:07:39.342Z,1.83
2022-08-11T09:10:11.584Z,2.00
2022-08-11T09:12:42.789Z,1.88
2022-08-11T09:15:15.160Z,1.80
2022-08-11T09:17:50.524Z,1.60
2022-08-11T09:20:21.771Z,1.80
2022-08-11T09:26:18.027Z,1.65
2022-08-11T09:28:47.677Z,1.80
2022-08-11T09:31:18.351Z,2.13
2022-08-11T09:33:55.104Z,2.70
2022-08-11T09:36:41.334Z,2.15
2022-08-11T09:39:31.059Z,2.10
2022-08-11T09:42:03.333Z,1.55
2022-08-11T09:44:48.549Z,1.70
2022-08-11T09:47:27.769Z,1.67
2022-08-11T09:50:00.580Z,1.55
2022-08-11T09:52:33.358Z,1.60
2022-08-11T09:55:04.136Z,1.50
2022-08-11T09:57:49.879Z,1.75
2022-08-11T10:00:18.676Z,1.90
2022-08-11T10:02:53.198Z,1.75
2022-08-11T10:05:40.546Z,1.80
2022-08-11T10:08:11.064Z,1.67
2022-08-11T10:10:41.339Z,1.60
2022-08-11T10:14:08.062Z,1.77
2022-08-11T10:16:16.028Z,1.60
2022-08-11T10:18:53.397Z,1.60
2022-08-11T10:21:29.279Z,2.10
2022-08-11T10:24:17.829Z,2.25
2022-08-11T10:26:55.508Z,1.67
2022-08-11T10:29:45.275Z,1.50
2022-08-11T10:32:58.807Z,1.63
2022-08-11T10:35:32.758Z,1.83
2022-08-11T10:38:06.826Z,1.90
2022-08-11T10:41:10.770Z,1.70
2022-08-11T10:44:02.715Z,1.80
2022-08-11T10:46:47.216Z,1.63
2022-08-11T10:49:16.143Z,1.58
2022-08-11T10:52:04.726Z,1.75
2022-08-11T10:54:52.042Z,1.38
2022-08-11T10:57:38.395Z,1.50
2022-08-11T11:00:08.604Z,1.63
2022-08-11T11:02:37.715Z,1.30
2022-08-11T11:05:14.068Z,1.63
2022-08-11T11:07:53.944Z,1.27
2022-08-11T11:10:22.686Z,1.50
2022-08-11T11:13:13.338Z,1.23
2022-08-11T11:16:02.998Z,1.20
2022-08-11T11:18:36.091Z,1.60
2022-08-11T11:21:08.562Z,1.30
2022-08-11T11:23:47.570Z,1.08
2022-08-11T11:26:31.855Z,1.55
2022-08-11T11:29:21.452Z,1.27
2022-08-11T11:31:58.603Z,1.52
2022-08-11T11:34:53.150Z,1.58
2022-08-11T11:37:24.854Z,1.60
2022-08-11T11:39:57.694Z,1.60
2022-08-11T11:42:27.198Z,1.30
2022-08-11T11:44:57.842Z,1.40
2022-08-11T11:47:28.521Z,1.45
2022-08-11T11:49:57.229Z,1.60
2022-08-11T11:52:26.126Z,1.48
2022-08-11T11:54:58.569Z,1.20
2022-08-11T11:57:59.428Z,1.30
2022-08-11T12:00:48.890Z,1.40
2022-08-11T12:03:18.458Z,1.35
2022-08-11T12:05:47.783Z,1.60
2022-08-11T12:08:17.418Z,1.40
2022-08-11T12:10:50.416Z,1.40
2022-08-11T12:13:37.089Z,1.30
2022-08-11T12:16:32.826Z,1.50
2022-08-11T12:18:57.555Z,1.33
2022-08-11T12:21:27.443Z,1.50
2022-08-11T12:24:16.698Z,1.75
2022-08-11T12:27:16.362Z,1.42
2022-08-11T12:29:54.525Z,1.33
2022-08-11T12:32:26.728Z,1.63
2022-08-11T12:34:58.080Z,1.70
2022-08-11T12:37:31.938Z,1.60
2022-08-11T12:40:42.581Z,1.98
2022-08-11T12:43:37.139Z,1.80
2022-08-11T12:46:11.223Z,1.27
2022-08-11T12:49:03.804Z,1.58
2022-08-11T12:52:12.734Z,1.50
2022-08-11T12:54:52.057Z,1.58
2022-08-11T12:57:47.176Z,1.60
2022-08-11T13:00:36.177Z,1.50
2022-08-11T13:03:24.478Z,1.70
2022-08-11T13:05:55.986Z,1.67
2022-08-11T13:08:26.533Z,1.58
2022-08-11T13:11:15.172Z,1.83
2022-08-11T13:13:54.623Z,1.70
2022-08-11T13:16:30.207Z,1.70
2022-08-11T13:19:01.531Z,2.28
2022-08-11T13:21:31.340Z,1.75
2022-08-11T13:24:03.011Z,1.70
2022-08-11T13:26:47.805Z,1.80
2022-08-11T13:29:20.524Z,1.65
2022-08-11T13:31:51.685Z,1.38
2022-08-11T13:34:21.200Z,1.20
2022-08-11T13:36:52.334Z,1.60
2022-08-11T13:39:23.869Z,1.48
2022-08-11T13:41:54.127Z,1.30
2022-08-11T13:44:25.797Z,1.70
2022-08-11T13:46:59.446Z,1.40
2022-08-11T13:49:28.811Z,1.33
2022-08-11T13:51:58.383Z,1.40
2022-08-11T13:54:30.056Z,1.42
2022-08-11T13:57:02.119Z,1.40
2022-08-11T13:59:31.594Z,1.52
2022-08-11T14:02:22.167Z,1.30
2022-08-11T14:04:56.635Z,1.55
2022-08-11T14:07:28.700Z,1.27
2022-08-11T14:09:59.991Z,1.20
2022-08-11T14:12:50.287Z,1.40
2022-08-11T14:15:25.345Z,1.33
2022-08-11T14:18:01.300Z,1.70
2022-08-11T14:20:53.100Z,1.42
2022-08-11T14:23:25.147Z,1.15
2022-08-11T14:26:11.294Z,1.20
2022-08-11T14:28:44.460Z,1.23
2022-08-11T14:31:15.682Z,1.23
2022-08-11T14:34:00.481Z,1.30
2022-08-11T14:36:34.255Z,1.23
2022-08-11T14:39:05.423Z,1.55
2022-08-11T14:42:10.993Z,1.40
2022-08-11T14:45:03.093Z,1.30
2022-08-11T14:47:37.395Z,1.55
2022-08-11T14:50:12.561Z,1.30
2022-08-11T14:52:47.077Z,1.50
2022-08-11T14:55:34.496Z,1.50
2022-08-11T14:58:04.318Z,1.63
2022-08-11T15:00:35.298Z,1.02
2022-08-11T15:03:11.137Z,1.40
2022-08-11T15:05:54.325Z,1.10
2022-08-11T15:08:59.191Z,1.30
2022-08-11T15:11:48.952Z,1.05
2022-08-11T15:14:38.812Z,1.08
2022-08-11T15:17:10.714Z,1.20
2022-08-11T15:20:04.142Z,1.10
2022-08-11T15:22:51.952Z,1.30
2022-08-11T15:25:21.389Z,1.27
2022-08-11T15:28:11.537Z,1.33
2022-08-11T15:30:57.758Z,1.95
2022-08-11T15:33:47.599Z,1.90
2022-08-11T15:36:34.336Z,1.50
2022-08-11T15:39:19.330Z,2.00
2022-08-11T15:42:12.766Z,1.88
2022-08-11T15:45:03.466Z,1.67
2022-08-11T15:47:41.618Z,2.10
2022-08-11T15:50:15.860Z,2.17
2022-08-11T15:52:51.094Z,1.77
2022-08-11T15:55:23.619Z,2.28
2022-08-11T15:58:12.525Z,2.33
2022-08-11T16:01:08.738Z,2.80
2022-08-11T16:04:07.619Z,3.05
2022-08-11T16:06:47.146Z,2.50
2022-08-11T16:09:22.356Z,2.90
2022-08-11T16:11:54.455Z,2.90
2022-08-11T16:14:42.833Z,2.80
2022-08-11T16:17:13.560Z,2.80
2022-08-11T16:19:43.723Z,2.88
2022-08-11T16:22:13.884Z,3.08
2022-08-11T16:27:04.603Z,3.47
2022-08-11T16:27:41.783Z,3.20
2022-08-11T16:30:11.367Z,3.42
2022-08-11T16:32:43.146Z,4.45
2022-08-11T16:35:34.430Z,2.80
2022-08-11T16:38:22.372Z,3.15
2022-08-11T16:40:53.747Z,2.80
2022-08-11T16:43:58.077Z,2.80
2022-08-11T16:46:45.788Z,2.67
2022-08-11T16:49:18.117Z,2.47
2022-08-11T16:51:46.939Z,2.30
2022-08-11T16:54:15.782Z,2.63
2022-08-11T16:56:49.177Z,2.45
2022-08-11T16:59:24.168Z,3.33
2022-08-11T17:01:54.782Z,2.40
2022-08-11T17:04:48.836Z,2.85
2022-08-11T17:07:42.286Z,2.88
2022-08-11T17:10:51.797Z,2.92
2022-08-11T17:13:29.391Z,3.20
2022-08-11T17:16:08.822Z,2.47
2022-08-11T17:18:44.302Z,2.55
2022-08-11T17:21:16.778Z,2.80
2022-08-11T17:23:48.210Z,2.38
2022-08-11T17:26:19.837Z,2.70
2022-08-11T17:28:52.078Z,2.65
2022-08-11T17:31:41.738Z,2.65
2022-08-11T17:34:28.433Z,2.97
2022-08-11T17:36:57.680Z,2.83
2022-08-11T17:39:30.281Z,3.90
2022-08-11T17:42:17.854Z,3.63
2022-08-11T17:45:07.048Z,3.83
2022-08-11T17:47:55.237Z,3.47
2022-08-11T17:50:24.117Z,4.43
2022-08-11T17:53:11.763Z,4.50
2022-08-11T17:55:58.476Z,4.35
2022-08-11T17:58:45.469Z,4.43
2022-08-11T18:01:16.590Z,4.93
2022-08-11T18:03:57.892Z,4.80
2022-08-11T18:06:34.027Z,5.03
2022-08-11T18:09:26.477Z,5.25
2022-08-11T18:12:14.182Z,4.80
2022-08-11T18:15:04.911Z,4.88
2022-08-11T18:17:51.243Z,4.75
2022-08-11T18:20:39.182Z,7.85
2022-08-11T18:23:45.671Z,10.93
2022-08-11T18:26:38.077Z,10.65
2022-08-11T18:29:27.102Z,10.73
2022-08-11T18:32:22.051Z,7.57
2022-08-11T18:35:10.905Z,7.63
2022-08-11T18:38:05.877Z,6.70
2022-08-11T18:40:54.246Z,5.65
2022-08-11T18:43:44.575Z,5.38
2022-08-11T18:46:33.836Z,5.63
2022-08-11T18:49:26.612Z,5.85
2022-08-11T18:52:16.952Z,5.53
2022-08-11T18:55:06.923Z,6.00
2022-08-11T18:57:59.541Z,5.25
2022-08-11T19:00:47.140Z,5.63
2022-08-11T19:03:43.458Z,5.85
2022-08-11T19:06:41.025Z,6.20
2022-08-11T19:09:30.501Z,6.05
2022-08-11T19:12:19.451Z,6.18
2022-08-11T19:15:08.419Z,6.25
2022-08-11T19:17:57.740Z,5.90
2022-08-11T19:20:46.416Z,6.13
2022-08-11T19:23:36.162Z,6.15
2022-08-11T19:26:23.690Z,6.28
2022-08-11T19:30:07.618Z,5.88
2022-08-11T19:32:21.063Z,6.28
2022-08-11T19:35:08.626Z,5.78
2022-08-11T19:37:56.914Z,6.45
2022-08-11T19:40:43.797Z,6.20
2022-08-11T19:43:31.386Z,6.20
2022-08-11T19:46:23.883Z,5.95
2022-08-11T19:49:13.160Z,6.32
2022-08-11T19:52:01.628Z,6.35
2022-08-11T19:54:52.522Z,7.20
2022-08-11T19:57:41.162Z,6.35
2022-08-11T20:00:30.601Z,6.50
2022-08-11T20:03:19.412Z,6.95
2022-08-11T20:06:06.964Z,6.60
2022-08-11T20:08:58.380Z,7.05
2022-08-11T20:11:48.805Z,7.15
2022-08-11T20:14:36.797Z,7.82
2022-08-11T20:17:24.021Z,7.60
2022-08-11T20:20:12.076Z,6.47
2022-08-11T20:22:59.314Z,7.22
2022-08-11T20:25:47.185Z,7.32
2022-08-11T20:28:35.570Z,8.00
2022-08-11T20:31:24.411Z,7.20
2022-08-11T20:34:10.712Z,7.30
2022-08-11T20:36:59.744Z,7.38
2022-08-11T20:39:46.935Z,6.88
2022-08-11T20:42:33.247Z,6.80
2022-08-11T20:45:23.640Z,7.45
2022-08-11T20:48:15.075Z,6.50
2022-08-11T20:51:06.389Z,6.85
2022-08-11T20:53:57.289Z,5.68
2022-08-11T20:56:46.019Z,6.57
2022-08-11T20:59:38.407Z,6.15
2022-08-11T21:02:29.898Z,6.65
2022-08-11T21:05:19.584Z,6.97
2022-08-11T21:08:25.326Z,6.28
2022-08-11T21:11:14.095Z,6.95
2022-08-11T21:14:15.620Z,6.72
2022-08-11T21:17:27.013Z,7.05
2022-08-11T21:20:20.870Z,7.50
2022-08-11T21:23:20.009Z,8.13
2022-08-11T21:26:21.059Z,7.45
2022-08-11T21:29:08.690Z,6.63
2022-08-11T21:31:55.705Z,7.60
2022-08-11T21:34:43.412Z,7.63
2022-08-11T21:37:31.745Z,7.10
2022-08-11T21:40:22.433Z,7.80
2022-08-11T21:43:12.384Z,8.20
2022-08-11T21:45:59.473Z,8.05
2022-08-11T21:48:46.830Z,7.22
2022-08-11T21:51:33.457Z,7.30
2022-08-11T21:54:21.284Z,8.13
2022-08-11T21:57:07.629Z,8.43
2022-08-11T22:00:03.233Z,8.45
2022-08-11T22:02:58.187Z,8.73
2022-08-11T22:05:44.944Z,8.75
2022-08-11T22:08:31.728Z,9.48
2022-08-11T22:11:31.962Z,9.13
2022-08-11T22:14:19.940Z,9.95
2022-08-11T22:17:07.364Z,8.95
2022-08-11T22:19:54.693Z,8.88
2022-08-11T22:22:52.353Z,8.73
2022-08-11T22:25:44.119Z,8.70
2022-08-11T22:28:40.757Z,9.32
2022-08-11T22:31:29.185Z,8.30
2022-08-11T22:34:16.508Z,8.65
2022-08-11T22:37:04.423Z,8.30
2022-08-11T22:39:58.345Z,9.45
2022-08-11T22:42:50.736Z,8.73
2022-08-11T22:45:36.797Z,9.07
2022-08-11T22:48:24.528Z,9.65
2022-08-11T22:51:13.607Z,9.82
2022-08-11T22:54:00.353Z,10.13
2022-08-11T22:56:48.580Z,10.23
2022-08-11T22:59:35.329Z,10.85
2022-08-11T23:02:23.113Z,11.00
2022-08-11T23:05:10.197Z,10.70
2022-08-11T23:07:58.458Z,11.98
2022-08-11T23:10:45.328Z,11.73
2022-08-11T23:13:32.537Z,12.82
2022-08-11T23:16:19.275Z,11.30
2022-08-11T23:19:07.074Z,10.90
2022-08-11T23:21:54.123Z,10.35
2022-08-11T23:24:43.161Z,10.63
2022-08-11T23:27:30.422Z,11.60
2022-08-11T23:30:18.995Z,11.50
2022-08-11T23:33:08.546Z,11.75
2022-08-11T23:36:03.408Z,11.65
2022-08-11T23:38:52.157Z,11.95
2022-08-11T23:41:39.897Z,11.95
2022-08-11T23:44:27.603Z,12.63
2022-08-11T23:47:17.933Z,12.82
2022-08-11T23:50:05.975Z,12.50
2022-08-11T23:52:53.108Z,12.13
2022-08-11T23:55:39.352Z,12.50
2022-08-11T23:58:26.997Z,12.38
